createdAt,value
2023-05-10T00:01:52.388Z,5.40
2023-05-10T00:06:59.417Z,5.80
2023-05-10T00:12:07.215Z,5.10
2023-05-10T00:17:14.291Z,5.50
2023-05-10T00:22:21.319Z,5.40
2023-05-10T00:27:28.397Z,5.40
2023-05-10T00:32:35.637Z,5.30
2023-05-10T00:37:42.764Z,5.80
2023-05-10T00:42:49.904Z,6.00
2023-05-10T00:47:57.574Z,5.10
2023-05-10T00:53:05.526Z,6.00
2023-05-10T00:58:13.413Z,5.70
2023-05-10T01:03:20.693Z,5.60
2023-05-10T01:08:29.009Z,5.80
2023-05-10T01:13:40.667Z,6.00
2023-05-10T01:18:48.794Z,6.10
2023-05-10T01:24:41.492Z,6.10
2023-05-10T01:30:24.123Z,5.70
2023-05-10T01:35:42.869Z,5.80
2023-05-10T01:41:04.164Z,5.00
2023-05-10T01:46:18.955Z,7.00
2023-05-10T01:51:30.203Z,4.70
2023-05-10T01:56:39.891Z,5.60
2023-05-10T02:01:49.220Z,5.60
2023-05-10T02:06:59.799Z,6.00
2023-05-10T02:12:09.844Z,4.80
2023-05-10T02:17:18.398Z,5.50
2023-05-10T02:22:28.009Z,5.50
2023-05-10T02:27:35.922Z,5.40
2023-05-10T02:37:50.003Z,4.80
2023-05-10T02:42:59.812Z,4.60
2023-05-10T02:48:07.877Z,5.10
2023-05-10T02:58:24.583Z,4.70
2023-05-10T03:03:31.608Z,5.30
2023-05-10T03:08:38.805Z,5.80
2023-05-10T03:14:10.044Z,5.00
2023-05-10T03:19:24.768Z,5.50
2023-05-10T03:24:33.389Z,5.20
2023-05-10T03:29:43.827Z,5.00
2023-05-10T03:34:51.437Z,5.50
2023-05-10T03:39:58.492Z,5.80
2023-05-10T03:45:05.871Z,5.70
2023-05-10T03:50:14.779Z,5.30
2023-05-10T03:55:23.638Z,6.20
2023-05-10T04:00:31.661Z,6.00
2023-05-10T04:05:38.904Z,5.40
2023-05-10T04:15:52.222Z,5.40
2023-05-10T04:21:01.028Z,5.60
2023-05-10T04:26:08.181Z,6.30
2023-05-10T04:31:15.278Z,5.00
2023-05-10T04:36:22.372Z,6.00
2023-05-10T04:41:29.428Z,5.70
2023-05-10T04:46:36.838Z,5.90
2023-05-10T04:51:43.956Z,5.70
2023-05-10T04:56:51.137Z,6.20
2023-05-10T05:01:58.184Z,5.40
2023-05-10T05:07:05.361Z,6.00
2023-05-10T05:12:15.357Z,5.70
2023-05-10T05:17:22.722Z,5.40
2023-05-10T05:22:32.786Z,4.80
2023-05-10T05:27:40.517Z,5.40
2023-05-10T05:32:48.218Z,4.80
2023-05-10T05:43:00.884Z,5.10
2023-05-10T05:48:08.524Z,4.60
2023-05-10T05:53:15.573Z,4.50
2023-05-10T05:58:22.723Z,4.90
2023-05-10T06:03:29.955Z,4.20
2023-05-10T06:08:37.167Z,4.40
2023-05-10T06:13:44.249Z,3.80
2023-05-10T06:18:51.308Z,4.00
2023-05-10T06:23:58.419Z,3.70
2023-05-10T06:29:06.149Z,3.70
2023-05-10T06:34:13.357Z,4.30
2023-05-10T06:39:20.393Z,3.80
2023-05-10T06:44:27.907Z,3.60
2023-05-10T06:49:34.927Z,3.30
2023-05-10T06:54:42.184Z,2.80
2023-05-10T06:59:49.267Z,2.90
2023-05-10T07:04:56.443Z,3.30
2023-05-10T07:10:03.970Z,2.70
2023-05-10T07:20:18.549Z,2.80
2023-05-10T07:30:31.858Z,3.20
2023-05-10T07:35:39.143Z,3.00
2023-05-10T07:40:46.486Z,3.30
2023-05-10T07:45:56.119Z,2.80
2023-05-10T07:51:03.565Z,2.90
2023-05-10T07:56:26.274Z,3.10
2023-05-10T08:01:35.771Z,2.90
2023-05-10T08:06:43.243Z,3.00
2023-05-10T08:11:51.516Z,3.60
2023-05-10T08:16:58.900Z,2.60
2023-05-10T08:22:06.106Z,2.60
2023-05-10T08:27:13.371Z,3.40
2023-05-10T08:32:20.689Z,3.00
2023-05-10T08:37:28.255Z,3.00
2023-05-10T08:42:39.321Z,2.90
2023-05-10T08:47:46.420Z,3.00
2023-05-10T08:52:58.002Z,3.20
2023-05-10T08:58:05.934Z,2.20
2023-05-10T09:03:13.576Z,2.60
2023-05-10T09:13:27.497Z,3.30
2023-05-10T09:18:34.560Z,3.30
2023-05-10T09:23:46.144Z,2.60
2023-05-10T09:28:57.213Z,2.90
2023-05-10T09:34:04.184Z,3.00
2023-05-10T09:39:11.770Z,2.30
2023-05-10T09:44:21.709Z,2.80
2023-05-10T09:49:29.224Z,3.00
2023-05-10T09:54:37.224Z,2.40
2023-05-10T09:59:46.515Z,2.50
2023-05-10T10:04:55.326Z,2.70
2023-05-10T10:10:02.823Z,3.00
2023-05-10T10:20:17.199Z,3.10
2023-05-10T10:25:25.138Z,2.90
2023-05-10T10:30:39.193Z,3.20
2023-05-10T10:35:47.826Z,2.90
2023-05-10T10:41:10.184Z,3.30
2023-05-10T10:46:19.595Z,2.80
2023-05-10T10:51:30.708Z,3.30
2023-05-10T10:56:37.762Z,3.00
2023-05-10T11:01:46.238Z,3.30
2023-05-10T11:07:13.276Z,3.70
2023-05-10T11:12:20.556Z,3.20
2023-05-10T11:17:30.341Z,3.30
2023-05-10T11:22:53.383Z,4.10
2023-05-10T11:28:04.836Z,3.30
2023-05-10T11:33:16.787Z,3.70
2023-05-10T11:38:23.869Z,3.20
2023-05-10T11:43:31.927Z,2.90
2023-05-10T11:48:40.854Z,3.50
2023-05-10T11:53:47.840Z,3.20
2023-05-10T11:58:58.437Z,3.10
2023-05-10T12:04:06.018Z,3.00
2023-05-10T12:14:20.647Z,3.20
2023-05-10T12:19:28.354Z,2.80
2023-05-10T12:29:46.526Z,3.60
2023-05-10T12:34:56.447Z,2.80
2023-05-10T12:40:03.544Z,3.10
2023-05-10T12:45:12.954Z,3.10
2023-05-10T12:50:20.285Z,3.50
2023-05-10T12:55:27.603Z,2.90
2023-05-10T13:05:40.949Z,3.00
2023-05-10T13:10:48.392Z,3.30
2023-05-10T13:15:59.643Z,2.90
2023-05-10T13:21:08.675Z,4.60
2023-05-10T13:26:16.062Z,3.20
2023-05-10T13:31:25.042Z,2.90
2023-05-10T13:36:32.770Z,3.60
2023-05-10T13:41:40.011Z,3.50
2023-05-10T13:46:47.836Z,4.10
2023-05-10T13:51:55.251Z,2.90
2023-05-10T13:57:02.742Z,3.50
2023-05-10T14:02:10.010Z,4.20
2023-05-10T14:07:17.570Z,3.60
2023-05-10T14:12:25.175Z,3.70
2023-05-10T14:17:32.920Z,3.90
2023-05-10T14:22:41.419Z,3.30
2023-05-10T14:27:49.419Z,3.90
2023-05-10T14:32:59.567Z,3.50
2023-05-10T14:38:07.544Z,3.60
2023-05-10T14:43:15.694Z,3.20
2023-05-10T14:48:27.426Z,3.40
2023-05-10T14:53:34.670Z,3.10
2023-05-10T14:58:42.296Z,3.00
2023-05-10T15:03:49.776Z,3.40
2023-05-10T15:08:57.767Z,3.20
2023-05-10T15:14:10.183Z,3.60
2023-05-10T15:19:17.946Z,3.60
2023-05-10T15:29:32.589Z,3.20
2023-05-10T15:34:41.359Z,5.00
2023-05-10T15:39:49.683Z,2.80
2023-05-10T15:44:59.027Z,3.40
2023-05-10T15:50:08.383Z,3.00
2023-05-10T15:55:17.304Z,3.30
2023-05-10T16:00:29.190Z,2.60
2023-05-10T16:10:46.572Z,3.10
2023-05-10T16:15:55.739Z,3.50
2023-05-10T16:21:04.868Z,3.00
2023-05-10T16:26:12.889Z,3.00
2023-05-10T16:36:31.821Z,2.90
2023-05-10T16:41:41.492Z,3.20
2023-05-10T16:46:49.100Z,3.10
2023-05-10T16:51:59.443Z,2.70
2023-05-10T16:57:07.665Z,3.10
2023-05-10T17:02:16.063Z,3.10
2023-05-10T17:07:26.144Z,2.80
2023-05-10T17:12:34.340Z,3.10
2023-05-10T17:22:47.728Z,3.20
2023-05-10T17:27:55.266Z,3.20
2023-05-10T17:33:04.440Z,2.90
2023-05-10T17:38:12.259Z,3.20
2023-05-10T17:43:22.467Z,3.10
2023-05-10T17:48:30.766Z,3.60
2023-05-10T17:53:38.450Z,3.00
2023-05-10T17:58:45.919Z,3.10
2023-05-10T18:03:53.407Z,3.10
2023-05-10T18:09:01.018Z,3.00
2023-05-10T18:14:16.051Z,2.80
2023-05-10T18:19:28.854Z,3.00
2023-05-10T18:24:39.444Z,3.20
2023-05-10T18:29:47.784Z,3.00
2023-05-10T18:34:55.867Z,3.20
2023-05-10T18:40:13.049Z,2.90
2023-05-10T18:45:21.987Z,2.80
2023-05-10T18:50:29.729Z,3.50
2023-05-10T18:55:37.212Z,3.90
2023-05-10T19:00:44.729Z,3.50
2023-05-10T19:05:52.175Z,3.90
2023-05-10T19:10:59.557Z,4.00
2023-05-10T19:16:16.259Z,4.00
2023-05-10T19:21:26.604Z,4.00
2023-05-10T19:26:36.819Z,4.00
2023-05-10T19:31:54.424Z,4.40
2023-05-10T19:37:02.001Z,5.30
2023-05-10T19:42:10.907Z,4.90
2023-05-10T19:47:18.751Z,5.10
2023-05-10T19:52:26.615Z,4.80
2023-05-10T20:02:39.918Z,4.60
2023-05-10T20:07:47.966Z,4.20
2023-05-10T20:12:58.958Z,4.90
2023-05-10T20:18:07.224Z,4.80
2023-05-10T20:23:15.273Z,4.70
2023-05-10T20:28:26.471Z,4.30
2023-05-10T20:33:34.008Z,5.40
2023-05-10T20:38:42.274Z,4.50
2023-05-10T20:43:49.825Z,4.40
2023-05-10T20:48:57.517Z,4.30
2023-05-10T20:54:05.957Z,4.80
2023-05-10T20:59:19.499Z,4.80
2023-05-10T21:04:29.389Z,4.70
2023-05-10T21:09:36.962Z,4.70
2023-05-10T21:14:46.868Z,4.70
2023-05-10T21:19:57.177Z,4.90
2023-05-10T21:25:06.299Z,4.60
2023-05-10T21:30:14.889Z,4.60
2023-05-10T21:35:23.593Z,4.60
2023-05-10T21:40:31.587Z,5.10
2023-05-10T21:45:39.993Z,4.40
2023-05-10T21:50:48.131Z,4.30
2023-05-10T21:55:56.443Z,4.70
2023-05-10T22:01:07.818Z,4.90
2023-05-10T22:06:15.149Z,4.20
2023-05-10T22:11:24.493Z,4.40
2023-05-10T22:16:32.530Z,4.90
2023-05-10T22:21:41.338Z,4.50
2023-05-10T22:26:49.465Z,4.50
2023-05-10T22:31:57.234Z,4.10
2023-05-10T22:37:06.384Z,4.90
2023-05-10T22:42:13.443Z,4.80
2023-05-10T22:47:20.574Z,4.50
2023-05-10T22:52:27.720Z,4.50
2023-05-10T22:57:34.934Z,4.90
2023-05-10T23:02:43.404Z,5.10
2023-05-10T23:07:53.480Z,5.00
2023-05-10T23:13:00.841Z,4.70
2023-05-10T23:18:09.970Z,3.90
2023-05-10T23:23:17.366Z,5.00
2023-05-10T23:28:24.854Z,4.80
2023-05-10T23:33:32.401Z,4.00
2023-05-10T23:38:41.083Z,4.80
2023-05-10T23:43:48.373Z,4.20
2023-05-10T23:48:55.879Z,4.40
2023-05-10T23:54:03.653Z,4.70
2023-05-10T23:59:11.066Z,5.10
